createdAt,value
2018-08-23T00:01:25.470Z,2.70
2018-08-23T00:06:25.722Z,3.60
2018-08-23T00:08:53.278Z,3.80
2018-08-23T00:11:23.195Z,3.30
2018-08-23T00:13:50.665Z,3.00
2018-08-23T00:16:23.661Z,3.80
2018-08-23T00:18:51.051Z,2.70
2018-08-23T00:21:25.520Z,3.00
2018-08-23T00:24:05.505Z,3.00
2018-08-23T00:26:33.921Z,3.40
2018-08-23T00:29:01.436Z,3.90
2018-08-23T00:31:30.994Z,4.00
2018-08-23T00:33:58.528Z,4.00
2018-08-23T00:36:26.070Z,3.50
2018-08-23T00:38:53.575Z,3.80
2018-08-23T00:41:21.048Z,4.30
2018-08-23T00:43:48.500Z,3.90
2018-08-23T00:46:16.023Z,4.20
2018-08-23T00:48:43.575Z,4.50
2018-08-23T00:51:11.201Z,4.20
2018-08-23T00:53:43.297Z,4.50
2018-08-23T00:56:15.698Z,5.30
2018-08-23T00:58:45.937Z,5.10
2018-08-23T01:01:14.112Z,5.30
2018-08-23T01:03:41.945Z,4.90
2018-08-23T01:06:09.270Z,5.40
2018-08-23T01:08:36.658Z,5.20
2018-08-23T01:11:05.235Z,4.80
2018-08-23T01:13:32.599Z,6.70
2018-08-23T01:15:59.887Z,5.40
2018-08-23T01:18:27.323Z,5.50
2018-08-23T01:20:54.725Z,5.40
2018-08-23T01:23:22.052Z,6.20
2018-08-23T01:25:49.961Z,6.90
2018-08-23T01:28:17.458Z,6.00
2018-08-23T01:30:45.634Z,5.90
2018-08-23T01:33:14.430Z,6.30
2018-08-23T01:35:42.997Z,6.30
2018-08-23T01:38:10.968Z,6.30
2018-08-23T01:40:38.351Z,6.80
2018-08-23T01:43:05.706Z,6.50
2018-08-23T01:45:33.103Z,7.60
2018-08-23T01:48:03.362Z,7.90
2018-08-23T01:50:30.970Z,7.40
2018-08-23T01:52:59.349Z,7.80
2018-08-23T01:55:26.630Z,7.60
2018-08-23T01:57:54.205Z,7.70
2018-08-23T02:00:22.732Z,8.10
2018-08-23T02:02:50.137Z,8.40
2018-08-23T02:05:17.473Z,8.70
2018-08-23T02:07:44.834Z,7.80
2018-08-23T02:10:12.285Z,8.10
2018-08-23T02:12:45.293Z,8.70
2018-08-23T02:15:15.930Z,8.80
2018-08-23T02:17:49.181Z,8.60
2018-08-23T02:20:16.523Z,9.60
2018-08-23T02:22:43.923Z,8.80
2018-08-23T02:25:11.324Z,10.10
2018-08-23T02:27:56.648Z,9.80
2018-08-23T02:30:40.976Z,9.90
2018-08-23T02:33:09.529Z,11.90
2018-08-23T02:35:37.102Z,13.90
2018-08-23T02:38:04.689Z,14.10
2018-08-23T02:40:34.312Z,13.10
2018-08-23T02:43:01.769Z,14.20
2018-08-23T02:45:35.359Z,13.70
2018-08-23T02:48:02.696Z,12.60
2018-08-23T02:50:30.090Z,14.00
2018-08-23T02:53:02.007Z,14.10
2018-08-23T02:55:30.114Z,14.00
2018-08-23T02:57:58.706Z,13.80
2018-08-23T03:00:31.141Z,14.00
2018-08-23T03:03:00.628Z,13.60
2018-08-23T03:05:28.174Z,12.40
2018-08-23T03:07:55.661Z,12.00
2018-08-23T03:10:23.004Z,15.10
2018-08-23T03:12:50.395Z,15.80
2018-08-23T03:15:22.422Z,13.80
2018-08-23T03:17:52.798Z,14.30
2018-08-23T03:20:20.098Z,17.80
2018-08-23T03:22:50.538Z,15.80
2018-08-23T03:25:19.053Z,15.10
2018-08-23T03:27:46.408Z,16.90
2018-08-23T03:30:15.772Z,14.90
2018-08-23T03:32:43.151Z,14.10
2018-08-23T03:35:10.473Z,15.00
2018-08-23T03:37:37.844Z,18.10
2018-08-23T03:40:06.032Z,14.30
2018-08-23T03:42:33.370Z,13.40
2018-08-23T03:45:00.892Z,14.00
2018-08-23T03:47:36.137Z,14.40
2018-08-23T03:50:03.812Z,14.20
2018-08-23T03:52:36.805Z,14.00
2018-08-23T03:55:05.573Z,13.00
2018-08-23T03:57:38.799Z,13.00
2018-08-23T04:00:06.164Z,12.70
2018-08-23T04:02:33.585Z,11.90
2018-08-23T04:05:07.697Z,12.60
2018-08-23T04:07:36.029Z,12.90
2018-08-23T04:10:03.422Z,12.80
2018-08-23T04:12:30.991Z,14.40
2018-08-23T04:15:15.044Z,13.00
2018-08-23T04:17:42.423Z,14.90
2018-08-23T04:20:09.750Z,13.80
2018-08-23T04:22:37.029Z,12.60
2018-08-23T04:25:04.929Z,15.00
2018-08-23T04:27:32.194Z,13.50
2018-08-23T04:29:59.416Z,14.10
2018-08-23T04:32:32.301Z,15.50
2018-08-23T04:35:03.529Z,16.80
2018-08-23T04:37:30.850Z,15.40
2018-08-23T04:40:04.111Z,15.30
2018-08-23T04:42:31.473Z,15.70
2018-08-23T04:45:09.621Z,16.00
2018-08-23T04:47:51.620Z,18.30
2018-08-23T04:50:19.092Z,15.70
2018-08-23T04:52:46.525Z,15.50
2018-08-23T04:55:16.182Z,15.90
2018-08-23T04:57:43.786Z,16.30
2018-08-23T05:00:11.194Z,14.80
2018-08-23T05:02:38.622Z,15.50
2018-08-23T05:05:06.172Z,17.70
2018-08-23T05:07:33.618Z,16.70
2018-08-23T05:10:01.927Z,16.90
2018-08-23T05:12:29.499Z,18.00
2018-08-23T05:14:57.006Z,18.10
2018-08-23T05:17:25.038Z,18.00
2018-08-23T05:19:52.473Z,20.90
2018-08-23T05:22:20.097Z,19.80
2018-08-23T05:24:47.591Z,22.40
2018-08-23T05:27:15.499Z,20.50
2018-08-23T05:29:43.893Z,25.70
2018-08-23T05:32:11.111Z,24.80
2018-08-23T05:34:38.386Z,23.20
2018-08-23T05:37:06.516Z,29.10
2018-08-23T05:39:49.983Z,31.40
2018-08-23T05:42:28.367Z,31.20
2018-08-23T05:44:55.805Z,33.30
2018-08-23T05:47:23.091Z,35.30
2018-08-23T05:49:50.513Z,35.70
2018-08-23T05:52:17.743Z,33.60
2018-08-23T05:54:44.987Z,37.10
2018-08-23T05:57:12.222Z,39.20
2018-08-23T05:59:39.677Z,37.80
2018-08-23T06:02:06.973Z,38.10
2018-08-23T06:04:40.173Z,34.90
2018-08-23T06:07:07.419Z,34.10
2018-08-23T06:09:35.042Z,34.40
2018-08-23T06:12:02.365Z,34.70
2018-08-23T06:14:29.730Z,32.30
2018-08-23T06:16:58.077Z,33.10
2018-08-23T06:19:26.556Z,29.90
2018-08-23T06:21:53.849Z,30.10
2018-08-23T06:24:28.412Z,28.60
2018-08-23T06:26:58.189Z,27.00
2018-08-23T06:29:27.483Z,25.60
2018-08-23T06:32:10.701Z,25.10
2018-08-23T06:34:44.550Z,24.70
2018-08-23T06:37:11.985Z,23.50
2018-08-23T06:39:39.848Z,23.40
2018-08-23T06:42:07.373Z,21.70
2018-08-23T06:44:41.358Z,22.40
2018-08-23T06:47:10.491Z,23.20
2018-08-23T06:49:38.121Z,22.90
2018-08-23T06:52:10.030Z,22.90
2018-08-23T06:54:37.575Z,23.00
2018-08-23T06:57:05.146Z,23.40
2018-08-23T06:59:32.639Z,22.20
2018-08-23T07:02:00.256Z,22.60
2018-08-23T07:04:27.708Z,21.80
2018-08-23T07:06:55.175Z,21.50
2018-08-23T07:09:22.950Z,20.10
2018-08-23T07:11:57.743Z,20.20
2018-08-23T07:14:25.194Z,20.00
2018-08-23T07:16:52.723Z,18.40
2018-08-23T07:19:32.573Z,18.50
2018-08-23T07:22:03.797Z,18.30
2018-08-23T07:24:43.980Z,17.20
2018-08-23T07:27:12.657Z,17.00
2018-08-23T07:29:43.608Z,17.00
2018-08-23T07:32:15.933Z,16.30
2018-08-23T07:34:49.717Z,15.20
2018-08-23T07:37:18.709Z,13.70
2018-08-23T07:39:55.210Z,13.50
2018-08-23T07:42:26.315Z,13.10
2018-08-23T07:44:54.432Z,11.90
2018-08-23T07:47:22.481Z,9.40
2018-08-23T07:49:50.457Z,7.40
2018-08-23T07:52:18.086Z,3.10
2018-08-23T07:54:45.639Z,1.00
2018-08-23T07:57:13.412Z,1.00
2018-08-23T07:59:41.073Z,1.00
2018-08-23T08:02:14.343Z,1.00
2018-08-23T08:04:41.960Z,1.00
2018-08-23T08:07:11.777Z,1.00
2018-08-23T08:09:39.256Z,1.00
2018-08-23T08:12:14.867Z,1.00
2018-08-23T08:14:42.457Z,1.00
2018-08-23T08:17:16.241Z,1.00
2018-08-23T08:20:00.580Z,1.00
2018-08-23T08:22:28.194Z,1.00
2018-08-23T08:25:14.315Z,1.00
2018-08-23T08:27:41.588Z,1.00
2018-08-23T08:30:10.350Z,1.00
2018-08-23T08:32:37.598Z,1.00
2018-08-23T08:35:04.847Z,1.00
2018-08-23T08:37:36.760Z,1.00
2018-08-23T08:40:04.149Z,1.00
2018-08-23T08:42:32.888Z,1.00
2018-08-23T08:45:05.872Z,1.00
2018-08-23T08:47:33.115Z,1.00
2018-08-23T08:50:05.820Z,1.00
2018-08-23T08:52:33.110Z,1.00
2018-08-23T08:55:00.441Z,1.00
2018-08-23T08:57:32.115Z,1.00
2018-08-23T08:59:59.816Z,1.00
2018-08-23T09:02:31.889Z,1.00
2018-08-23T09:05:00.393Z,1.00
2018-08-23T09:07:30.203Z,1.00
2018-08-23T09:09:57.599Z,1.00
2018-08-23T09:12:24.835Z,1.00
2018-08-23T09:14:55.204Z,1.00
2018-08-23T09:17:35.110Z,1.00
2018-08-23T09:20:04.902Z,1.00
2018-08-23T09:22:54.278Z,1.00
2018-08-23T09:25:23.025Z,1.00
2018-08-23T09:27:50.948Z,1.00
2018-08-23T09:30:27.125Z,1.00
2018-08-23T09:32:54.980Z,1.00
2018-08-23T09:35:29.238Z,1.00
2018-08-23T09:38:01.603Z,1.00
2018-08-23T09:40:30.516Z,1.00
2018-08-23T09:43:01.632Z,1.00
2018-08-23T09:45:29.242Z,1.00
2018-08-23T09:47:56.594Z,1.00
2018-08-23T09:50:23.932Z,1.00
2018-08-23T09:52:52.761Z,1.00
2018-08-23T09:55:23.181Z,1.00
2018-08-23T09:57:50.480Z,1.00
2018-08-23T10:00:23.444Z,1.00
2018-08-23T10:02:57.326Z,1.00
2018-08-23T10:05:30.602Z,1.00
2018-08-23T10:08:03.815Z,1.00
2018-08-23T10:10:39.821Z,1.00
2018-08-23T10:13:13.502Z,1.00
2018-08-23T10:15:48.508Z,1.00
2018-08-23T10:18:27.060Z,1.00
2018-08-23T10:20:59.901Z,1.00
2018-08-23T10:23:27.187Z,1.00
2018-08-23T10:26:00.563Z,1.00
2018-08-23T10:28:32.444Z,1.00
2018-08-23T10:30:59.676Z,1.00
2018-08-23T10:33:26.887Z,1.00
2018-08-23T10:35:55.167Z,1.00
2018-08-23T10:38:23.764Z,1.00
2018-08-23T10:41:00.287Z,1.00
2018-08-23T10:43:33.418Z,1.00
2018-08-23T10:46:03.506Z,1.00
2018-08-23T10:48:33.195Z,1.00
2018-08-23T10:51:00.553Z,1.00
2018-08-23T10:53:27.973Z,1.00
2018-08-23T10:55:55.213Z,1.00
2018-08-23T10:58:22.607Z,1.00
2018-08-23T11:00:49.956Z,1.00
2018-08-23T11:03:21.623Z,1.00
2018-08-23T11:05:48.992Z,1.00
2018-08-23T11:08:18.137Z,1.00
2018-08-23T11:10:51.193Z,1.00
2018-08-23T11:13:25.332Z,1.00
2018-08-23T11:17:02.077Z,1.00
2018-08-23T11:19:35.103Z,1.00
2018-08-23T11:22:02.683Z,1.00
2018-08-23T11:24:30.318Z,1.00
2018-08-23T11:27:02.291Z,1.00
2018-08-23T11:29:30.975Z,1.00
2018-08-23T11:32:01.583Z,1.00
2018-08-23T11:34:29.116Z,1.00
2018-08-23T11:36:56.652Z,1.00
2018-08-23T11:41:57.346Z,1.00
2018-08-23T11:44:24.854Z,1.00
2018-08-23T11:46:52.441Z,1.00
2018-08-23T11:49:19.986Z,1.00
2018-08-23T11:51:47.473Z,1.00
2018-08-23T11:54:18.332Z,1.00
2018-08-23T11:56:45.847Z,1.00
2018-08-23T11:59:13.660Z,1.00
2018-08-23T12:01:41.144Z,1.00
2018-08-23T12:04:08.666Z,1.00
2018-08-23T12:06:36.171Z,1.00
2018-08-23T12:09:06.649Z,1.00
2018-08-23T12:11:34.275Z,1.00
2018-08-23T12:14:01.832Z,1.00
2018-08-23T12:16:29.638Z,1.00
2018-08-23T12:18:57.284Z,1.00
2018-08-23T12:21:29.663Z,1.00
2018-08-23T12:23:57.235Z,1.00
2018-08-23T12:26:24.717Z,1.00
2018-08-23T12:28:57.973Z,1.00
2018-08-23T12:31:25.569Z,1.00
2018-08-23T12:33:56.829Z,1.00
2018-08-23T12:36:30.038Z,1.00
2018-08-23T12:39:03.230Z,1.00
2018-08-23T12:41:37.665Z,1.00
2018-08-23T12:44:05.168Z,1.00
2018-08-23T12:46:32.841Z,1.00
2018-08-23T12:49:00.324Z,1.00
2018-08-23T12:51:27.863Z,1.00
2018-08-23T12:53:55.578Z,1.00
2018-08-23T12:56:25.477Z,1.00
2018-08-23T12:58:52.905Z,1.00
2018-08-23T13:01:20.606Z,1.00
2018-08-23T13:03:48.150Z,1.00
2018-08-23T13:06:15.628Z,1.00
2018-08-23T13:08:43.135Z,1.00
2018-08-23T13:11:16.014Z,1.00
2018-08-23T13:13:43.894Z,1.00
2018-08-23T13:16:11.452Z,1.00
2018-08-23T13:18:39.070Z,1.00
2018-08-23T13:21:07.267Z,1.00
2018-08-23T13:23:44.857Z,1.00
2018-08-23T13:26:13.186Z,1.00
2018-08-23T13:28:40.657Z,1.00
2018-08-23T13:31:08.209Z,1.00
2018-08-23T13:33:35.741Z,1.00
2018-08-23T13:36:06.123Z,1.00
2018-08-23T13:38:33.554Z,1.00
2018-08-23T13:41:01.046Z,1.00
2018-08-23T13:43:28.611Z,1.00
2018-08-23T13:45:56.063Z,1.00
2018-08-23T13:48:23.547Z,1.00
2018-08-23T13:50:50.989Z,1.00
2018-08-23T13:53:21.469Z,1.00
2018-08-23T13:55:48.945Z,1.00
2018-08-23T13:58:16.592Z,1.00
2018-08-23T14:00:44.245Z,1.00
2018-08-23T14:03:11.903Z,1.00
2018-08-23T14:05:40.476Z,1.00
2018-08-23T14:08:08.912Z,1.00
2018-08-23T14:10:37.892Z,1.00
2018-08-23T14:13:07.837Z,1.00
2018-08-23T14:15:48.725Z,1.00
2018-08-23T14:18:16.523Z,1.00
2018-08-23T14:20:46.323Z,1.00
2018-08-23T14:23:23.419Z,1.00
2018-08-23T14:25:53.104Z,1.00
2018-08-23T14:28:20.806Z,1.00
2018-08-23T14:30:48.531Z,1.00
2018-08-23T14:33:16.038Z,1.00
2018-08-23T14:35:46.319Z,1.00
2018-08-23T14:38:15.104Z,1.00
2018-08-23T14:40:43.125Z,1.00
2018-08-23T14:43:10.711Z,1.00
2018-08-23T14:45:38.142Z,1.00
2018-08-23T14:48:13.549Z,1.00
2018-08-23T14:50:41.002Z,1.00
2018-08-23T14:53:08.455Z,1.00
2018-08-23T14:55:41.513Z,1.00
2018-08-23T14:58:09.856Z,1.00
2018-08-23T15:00:37.306Z,1.00
2018-08-23T15:03:05.043Z,1.00
2018-08-23T15:05:32.687Z,1.00
2018-08-23T15:08:00.357Z,1.00
2018-08-23T15:10:28.013Z,1.00
2018-08-23T15:12:55.585Z,1.00
2018-08-23T15:15:28.737Z,1.00
2018-08-23T15:17:56.230Z,1.00
2018-08-23T15:20:23.682Z,1.00
2018-08-23T15:22:52.118Z,1.00
2018-08-23T15:25:20.015Z,1.00
2018-08-23T15:27:47.493Z,1.00
2018-08-23T15:30:15.033Z,1.00
2018-08-23T15:32:42.489Z,1.00
2018-08-23T15:35:09.969Z,1.00
2018-08-23T15:37:37.736Z,1.00
2018-08-23T15:40:05.474Z,1.00
2018-08-23T15:42:32.997Z,1.00
2018-08-23T15:45:00.740Z,1.00
2018-08-23T15:47:28.961Z,1.00
2018-08-23T15:49:56.791Z,1.00
2018-08-23T15:52:24.469Z,1.00
2018-08-23T15:54:52.179Z,1.00
2018-08-23T15:57:19.630Z,1.00
2018-08-23T15:59:47.173Z,1.00
2018-08-23T16:02:14.688Z,1.00
2018-08-23T16:04:42.218Z,1.00
2018-08-23T16:07:09.752Z,1.00
2018-08-23T16:09:37.335Z,1.00
2018-08-23T16:12:04.832Z,1.00
2018-08-23T16:14:32.343Z,1.00
2018-08-23T16:17:05.458Z,1.00
2018-08-23T16:19:38.727Z,1.00
2018-08-23T16:22:06.253Z,1.00
2018-08-23T16:24:33.852Z,1.00
2018-08-23T16:27:04.783Z,1.00
2018-08-23T16:29:32.354Z,1.00
2018-08-23T16:32:02.724Z,1.00
2018-08-23T16:34:34.744Z,1.00
2018-08-23T16:37:03.630Z,1.00
2018-08-23T16:39:31.336Z,1.00
2018-08-23T16:42:00.597Z,1.00
2018-08-23T16:44:29.282Z,1.00
2018-08-23T16:46:59.927Z,1.00
2018-08-23T16:49:27.954Z,1.00
2018-08-23T16:51:59.715Z,1.00
2018-08-23T16:54:28.533Z,1.00
2018-08-23T16:56:56.086Z,1.00
2018-08-23T16:59:23.658Z,1.00
2018-08-23T17:01:51.148Z,1.00
2018-08-23T17:04:18.714Z,1.00
2018-08-23T17:06:46.215Z,1.00
2018-08-23T17:09:14.898Z,1.00
2018-08-23T17:11:42.183Z,1.00
2018-08-23T17:14:13.650Z,1.00
2018-08-23T17:16:46.858Z,1.00
2018-08-23T17:19:14.217Z,1.00
2018-08-23T17:21:41.519Z,1.00
2018-08-23T17:24:08.919Z,1.00
2018-08-23T17:26:36.226Z,1.00
2018-08-23T17:29:03.466Z,1.00
2018-08-23T17:31:30.841Z,1.00
2018-08-23T17:33:58.142Z,1.00
2018-08-23T17:36:25.533Z,1.00
2018-08-23T17:38:52.863Z,1.00
2018-08-23T17:41:20.212Z,1.00
2018-08-23T17:43:47.483Z,1.00
2018-08-23T17:46:14.756Z,1.00
2018-08-23T17:48:42.086Z,1.00
2018-08-23T17:51:09.490Z,1.00
2018-08-23T17:53:37.137Z,1.00
2018-08-23T17:56:04.452Z,1.00
2018-08-23T17:58:31.714Z,1.00
2018-08-23T18:00:59.157Z,1.00
2018-08-23T18:03:26.420Z,1.00
2018-08-23T18:05:54.273Z,1.00
2018-08-23T18:08:21.789Z,1.00
2018-08-23T18:10:49.433Z,1.00
2018-08-23T18:13:16.867Z,1.00
2018-08-23T18:15:49.848Z,1.00
2018-08-23T18:18:18.557Z,1.00
2018-08-23T18:20:45.781Z,1.00
2018-08-23T18:23:13.158Z,1.00
2018-08-23T18:25:43.441Z,1.00
2018-08-23T18:28:10.941Z,1.00
2018-08-23T18:30:38.262Z,1.00
2018-08-23T18:33:05.866Z,1.00
2018-08-23T18:35:33.252Z,1.00
2018-08-23T18:38:00.600Z,1.00
2018-08-23T18:40:28.189Z,1.00
2018-08-23T18:42:55.576Z,1.00
2018-08-23T18:45:23.054Z,1.00
2018-08-23T18:47:50.389Z,1.00
2018-08-23T18:50:18.475Z,1.00
2018-08-23T18:52:47.361Z,1.00
2018-08-23T18:55:14.702Z,1.00
2018-08-23T18:57:42.039Z,1.00
2018-08-23T19:00:09.559Z,1.00
2018-08-23T19:02:36.681Z,1.00
2018-08-23T19:05:22.674Z,1.00
2018-08-23T19:07:50.222Z,1.00
2018-08-23T19:10:17.513Z,1.00
2018-08-23T19:12:53.585Z,1.00
2018-08-23T19:15:27.579Z,1.00
2018-08-23T19:18:03.840Z,1.00
2018-08-23T19:20:35.429Z,1.00
2018-08-23T19:23:02.827Z,1.00
2018-08-23T19:25:33.285Z,1.00
2018-08-23T19:28:00.878Z,1.00
2018-08-23T19:30:32.621Z,1.00
2018-08-23T19:33:05.322Z,1.00
2018-08-23T19:35:36.691Z,1.00
2018-08-23T19:38:12.060Z,1.00
2018-08-23T19:40:45.595Z,1.00
2018-08-23T19:43:13.286Z,1.00
2018-08-23T19:45:46.920Z,1.00
2018-08-23T19:48:14.668Z,1.00
2018-08-23T19:50:48.192Z,1.00
2018-08-23T19:53:20.074Z,1.00
2018-08-23T19:55:47.331Z,1.00
2018-08-23T19:58:14.746Z,1.00
2018-08-23T20:00:45.778Z,1.00
2018-08-23T20:03:13.366Z,1.00
2018-08-23T20:05:40.979Z,1.00
2018-08-23T20:10:41.202Z,1.00
2018-08-23T20:13:10.752Z,1.00
2018-08-23T20:15:39.290Z,1.00
2018-08-23T20:18:08.812Z,1.00
2018-08-23T20:20:42.799Z,1.00
2018-08-23T20:23:10.627Z,1.00
2018-08-23T20:25:38.113Z,1.00
2018-08-23T20:28:13.741Z,1.00
2018-08-23T20:30:41.729Z,1.00
2018-08-23T20:33:09.221Z,1.00
2018-08-23T20:35:38.419Z,1.00
2018-08-23T20:38:06.970Z,1.00
2018-08-23T20:40:36.856Z,1.00
2018-08-23T20:43:06.668Z,1.00
2018-08-23T20:45:36.676Z,1.00
2018-08-23T20:48:05.811Z,1.00
2018-08-23T20:50:37.019Z,1.00
2018-08-23T20:53:04.601Z,1.00
2018-08-23T20:55:33.785Z,1.00
2018-08-23T20:58:01.456Z,1.00
2018-08-23T21:00:28.976Z,1.00
2018-08-23T21:02:56.558Z,1.00
2018-08-23T21:05:24.121Z,1.00
2018-08-23T21:07:51.683Z,1.00
2018-08-23T21:10:19.200Z,1.00
2018-08-23T21:12:46.654Z,1.00
2018-08-23T21:15:14.258Z,1.00
2018-08-23T21:17:41.742Z,1.00
2018-08-23T21:20:09.193Z,1.00
2018-08-23T21:22:36.786Z,1.00
2018-08-23T21:25:04.313Z,1.00
2018-08-23T21:27:32.118Z,1.00
2018-08-23T21:30:00.469Z,1.00
2018-08-23T21:32:27.997Z,1.00
2018-08-23T21:34:55.611Z,1.00
2018-08-23T21:37:23.247Z,1.00
2018-08-23T21:39:50.750Z,1.00
2018-08-23T21:42:18.359Z,1.00
2018-08-23T21:44:45.973Z,1.00
2018-08-23T21:47:13.442Z,1.00
2018-08-23T21:49:41.040Z,1.00
2018-08-23T21:52:08.550Z,1.00
2018-08-23T21:54:36.122Z,1.00
2018-08-23T21:57:05.289Z,1.00
2018-08-23T21:59:32.877Z,1.00
2018-08-23T22:02:06.137Z,1.00
2018-08-23T22:04:38.209Z,1.00
2018-08-23T22:07:05.690Z,1.00
2018-08-23T22:09:33.255Z,1.00
2018-08-23T22:12:00.720Z,1.00
2018-08-23T22:14:28.189Z,1.00
2018-08-23T22:16:55.738Z,1.00
2018-08-23T22:19:23.653Z,1.00
2018-08-23T22:21:51.240Z,1.00
2018-08-23T22:24:18.818Z,1.00
2018-08-23T22:26:46.321Z,1.00
2018-08-23T22:29:13.775Z,1.00
2018-08-23T22:31:41.342Z,1.00
2018-08-23T22:34:08.850Z,1.00
2018-08-23T22:36:36.297Z,1.00
2018-08-23T22:39:05.792Z,1.00
2018-08-23T22:41:33.338Z,1.00
2018-08-23T22:44:02.886Z,1.00
2018-08-23T22:46:28.852Z,1.00
2018-08-23T22:48:56.468Z,1.00
2018-08-23T22:51:24.058Z,1.00
2018-08-23T22:53:52.684Z,1.00
2018-08-23T22:56:20.660Z,1.00
2018-08-23T22:58:48.160Z,1.00
2018-08-23T23:01:15.643Z,1.00
2018-08-23T23:03:50.607Z,1.00
2018-08-23T23:06:19.304Z,1.00
2018-08-23T23:08:46.727Z,1.00
2018-08-23T23:11:14.185Z,1.00
2018-08-23T23:13:42.579Z,1.00
2018-08-23T23:16:10.094Z,1.00
2018-08-23T23:18:40.652Z,1.00
2018-08-23T23:21:08.681Z,1.00
2018-08-23T23:23:36.258Z,1.00
2018-08-23T23:26:03.808Z,1.00
2018-08-23T23:28:31.499Z,1.00
2018-08-23T23:31:00.249Z,1.00
2018-08-23T23:33:27.826Z,1.00
2018-08-23T23:35:55.436Z,1.00
2018-08-23T23:38:22.929Z,1.00
2018-08-23T23:40:50.452Z,1.00
2018-08-23T23:43:17.991Z,1.00
2018-08-23T23:45:46.061Z,1.00
2018-08-23T23:48:16.259Z,1.00
2018-08-23T23:50:43.685Z,1.00
2018-08-23T23:53:11.083Z,1.50
2018-08-23T23:55:38.514Z,2.00
2018-08-23T23:58:06.122Z,3.00
